createdAt,value
2019-02-17T00:02:05.812Z,32.32
2019-02-17T00:05:15.327Z,32.32
2019-02-17T00:08:18.795Z,32.32
2019-02-17T00:11:22.449Z,32.33
2019-02-17T00:14:26.929Z,32.33
2019-02-17T00:17:30.482Z,32.30
2019-02-17T00:20:34.136Z,32.33
2019-02-17T00:23:37.631Z,32.31
2019-02-17T00:26:42.188Z,32.30
2019-02-17T00:29:45.681Z,32.31
2019-02-17T00:32:50.201Z,32.34
2019-02-17T00:35:53.719Z,32.33
2019-02-17T00:38:57.459Z,32.33
2019-02-17T00:42:01.094Z,32.32
2019-02-17T00:45:04.698Z,32.31
2019-02-17T00:48:08.145Z,32.32
2019-02-17T00:51:11.608Z,32.29
2019-02-17T00:54:15.107Z,32.31
2019-02-17T00:57:19.622Z,32.30
2019-02-17T01:00:24.147Z,32.32
2019-02-17T01:03:28.678Z,32.31
2019-02-17T01:06:33.198Z,32.30
2019-02-17T01:09:37.136Z,32.33
2019-02-17T01:12:40.603Z,32.36
2019-02-17T01:15:45.144Z,32.30
2019-02-17T01:18:48.584Z,32.28
2019-02-17T01:21:53.161Z,32.30
2019-02-17T01:24:56.673Z,32.27
2019-02-17T01:28:01.187Z,32.30
2019-02-17T01:31:04.691Z,32.29
2019-02-17T01:34:10.185Z,32.31
2019-02-17T01:37:13.691Z,32.29
2019-02-17T01:40:17.151Z,32.29
2019-02-17T01:43:20.644Z,32.28
2019-02-17T01:46:24.240Z,32.29
2019-02-17T01:49:28.790Z,32.30
2019-02-17T01:52:32.259Z,32.30
2019-02-17T01:55:35.820Z,32.30
2019-02-17T01:58:40.303Z,32.30
2019-02-17T02:01:44.819Z,32.29
2019-02-17T02:04:50.362Z,32.26
2019-02-17T02:07:53.878Z,32.31
2019-02-17T02:10:57.365Z,32.27
2019-02-17T02:14:00.870Z,32.25
2019-02-17T02:17:04.370Z,32.27
2019-02-17T02:20:09.192Z,32.25
2019-02-17T02:23:12.658Z,32.27
2019-02-17T02:26:16.301Z,32.26
2019-02-17T02:29:19.790Z,32.24
2019-02-17T02:32:23.294Z,32.27
2019-02-17T02:35:27.844Z,32.29
2019-02-17T02:38:31.336Z,32.23
2019-02-17T02:41:35.884Z,32.26
2019-02-17T02:44:39.399Z,32.23
2019-02-17T02:47:44.904Z,32.25
2019-02-17T02:50:48.396Z,32.23
2019-02-17T02:53:51.905Z,32.25
2019-02-17T02:56:55.436Z,32.25
2019-02-17T02:59:58.881Z,32.23
2019-02-17T03:03:02.327Z,32.23
2019-02-17T03:06:18.778Z,32.27
2019-02-17T03:09:23.423Z,32.24
2019-02-17T03:12:27.034Z,32.22
2019-02-17T03:15:32.595Z,32.21
2019-02-17T03:18:36.084Z,32.24
2019-02-17T03:21:39.535Z,32.24
2019-02-17T03:24:43.135Z,32.21
2019-02-17T03:27:46.653Z,32.26
2019-02-17T03:30:50.331Z,32.26
2019-02-17T03:33:53.820Z,32.25
2019-02-17T03:36:57.280Z,32.21
2019-02-17T03:40:00.795Z,32.22
2019-02-17T03:43:05.343Z,32.20
2019-02-17T03:46:08.813Z,32.25
2019-02-17T03:49:12.441Z,32.25
2019-02-17T03:52:16.030Z,32.27
2019-02-17T03:55:19.504Z,32.27
2019-02-17T03:58:23.034Z,32.25
2019-02-17T04:01:26.538Z,32.23
2019-02-17T04:04:30.035Z,32.23
2019-02-17T04:07:34.571Z,32.24
2019-02-17T04:10:38.071Z,32.22
2019-02-17T04:13:41.556Z,32.24
2019-02-17T04:16:45.060Z,32.23
2019-02-17T04:19:48.500Z,32.23
2019-02-17T04:22:51.951Z,32.23
2019-02-17T04:25:56.485Z,32.23
2019-02-17T04:28:59.983Z,32.25
2019-02-17T04:32:03.608Z,32.25
2019-02-17T04:35:07.107Z,32.24
2019-02-17T04:38:10.610Z,32.26
2019-02-17T04:41:14.163Z,32.26
2019-02-17T04:44:17.861Z,32.24
2019-02-17T04:47:22.320Z,32.26
2019-02-17T04:50:25.805Z,32.23
2019-02-17T04:53:29.331Z,32.23
2019-02-17T04:56:34.882Z,32.25
2019-02-17T04:59:38.306Z,32.27
2019-02-17T05:02:41.748Z,32.27
2019-02-17T05:05:46.301Z,32.26
2019-02-17T05:08:49.772Z,32.27
2019-02-17T05:11:53.401Z,32.26
2019-02-17T05:14:58.942Z,32.24
2019-02-17T05:18:02.464Z,32.25
2019-02-17T05:21:05.946Z,32.30
2019-02-17T05:24:09.450Z,32.25
2019-02-17T05:27:12.958Z,32.22
2019-02-17T05:30:16.459Z,32.22
2019-02-17T05:33:21.002Z,32.23
2019-02-17T05:36:24.506Z,32.25
2019-02-17T05:39:33.914Z,32.24
2019-02-17T05:42:37.371Z,32.22
2019-02-17T05:45:40.937Z,32.25
2019-02-17T05:48:45.434Z,32.24
2019-02-17T05:51:49.985Z,32.23
2019-02-17T05:54:54.506Z,32.26
2019-02-17T05:57:58.004Z,32.26
2019-02-17T06:01:04.248Z,32.21
2019-02-17T06:04:06.836Z,32.25
2019-02-17T06:07:10.286Z,32.25
2019-02-17T06:10:14.859Z,32.25
2019-02-17T06:13:18.405Z,32.25
2019-02-17T06:16:21.868Z,32.23
2019-02-17T06:19:25.380Z,32.25
2019-02-17T06:22:28.832Z,32.21
2019-02-17T06:25:32.362Z,32.23
2019-02-17T06:28:35.862Z,32.23
2019-02-17T06:31:39.407Z,32.24
2019-02-17T06:34:46.153Z,32.25
2019-02-17T06:37:50.691Z,32.24
2019-02-17T06:40:54.157Z,32.19
2019-02-17T06:43:57.691Z,32.25
2019-02-17T06:47:05.524Z,32.27
2019-02-17T06:50:09.753Z,32.26
2019-02-17T06:53:13.509Z,32.23
2019-02-17T06:56:23.713Z,32.23
2019-02-17T06:59:28.282Z,32.22
2019-02-17T07:02:31.787Z,32.21
2019-02-17T07:05:49.883Z,32.22
2019-02-17T07:08:53.651Z,32.21
2019-02-17T07:11:58.270Z,32.23
2019-02-17T07:15:01.796Z,32.23
2019-02-17T07:18:06.274Z,32.21
2019-02-17T07:21:09.766Z,32.22
2019-02-17T07:24:13.291Z,32.21
2019-02-17T07:27:16.822Z,32.24
2019-02-17T07:30:20.415Z,32.23
2019-02-17T07:33:24.116Z,32.20
2019-02-17T07:36:27.624Z,32.22
2019-02-17T07:39:31.071Z,32.22
2019-02-17T07:42:34.651Z,32.24
2019-02-17T07:45:38.403Z,32.21
2019-02-17T07:48:41.911Z,32.22
2019-02-17T07:51:47.452Z,32.22
2019-02-17T07:54:50.963Z,32.21
2019-02-17T07:57:54.454Z,32.23
2019-02-17T08:00:59.006Z,32.23
2019-02-17T08:04:02.502Z,32.23
2019-02-17T08:07:05.992Z,32.17
2019-02-17T08:10:09.491Z,32.21
2019-02-17T08:13:12.997Z,32.23
2019-02-17T08:16:18.546Z,32.20
2019-02-17T08:19:24.085Z,32.20
2019-02-17T08:22:27.595Z,32.21
2019-02-17T08:25:31.115Z,32.16
2019-02-17T08:28:34.701Z,32.14
2019-02-17T08:31:38.289Z,32.27
2019-02-17T08:34:41.796Z,32.31
2019-02-17T08:37:46.354Z,32.46
2019-02-17T08:40:49.826Z,32.52
2019-02-17T08:43:53.467Z,32.50
2019-02-17T08:46:57.025Z,32.49
2019-02-17T08:50:00.533Z,32.48
2019-02-17T08:53:04.065Z,32.49
2019-02-17T08:56:08.545Z,32.49
2019-02-17T08:59:12.109Z,32.47
2019-02-17T09:02:15.752Z,32.45
2019-02-17T09:05:19.265Z,32.46
2019-02-17T09:08:22.766Z,32.47
2019-02-17T09:11:26.220Z,32.47
2019-02-17T09:14:29.779Z,32.39
2019-02-17T09:17:34.282Z,32.41
2019-02-17T09:20:37.790Z,32.44
2019-02-17T09:23:41.314Z,32.45
2019-02-17T09:26:51.736Z,32.40
2019-02-17T09:29:55.256Z,32.44
2019-02-17T09:32:59.787Z,32.46
2019-02-17T09:36:03.292Z,32.41
2019-02-17T09:39:10.647Z,32.41
2019-02-17T09:42:14.175Z,32.42
2019-02-17T09:45:17.687Z,32.41
2019-02-17T09:48:21.194Z,32.41
2019-02-17T09:51:24.675Z,32.41
2019-02-17T09:54:28.230Z,32.34
2019-02-17T09:57:32.697Z,32.34
2019-02-17T10:00:37.233Z,32.44
2019-02-17T10:03:40.739Z,32.34
2019-02-17T10:06:46.296Z,32.38
2019-02-17T10:09:50.807Z,32.48
2019-02-17T10:12:54.350Z,32.46
2019-02-17T10:15:57.812Z,32.43
2019-02-17T10:19:01.417Z,32.46
2019-02-17T10:22:04.913Z,32.44
2019-02-17T10:25:09.556Z,32.46
2019-02-17T10:28:13.032Z,32.42
2019-02-17T10:31:18.581Z,32.46
2019-02-17T10:34:22.145Z,32.41
2019-02-17T10:37:25.894Z,32.40
2019-02-17T10:40:29.387Z,32.49
2019-02-17T10:43:32.994Z,32.48
2019-02-17T10:46:36.513Z,32.42
2019-02-17T10:49:41.047Z,32.37
2019-02-17T10:52:44.494Z,32.42
2019-02-17T10:55:48.112Z,32.36
2019-02-17T10:58:52.759Z,32.34
2019-02-17T11:01:57.291Z,32.38
2019-02-17T11:05:00.785Z,32.35
2019-02-17T11:08:04.314Z,32.41
2019-02-17T11:11:07.786Z,32.35
2019-02-17T11:14:11.303Z,32.33
2019-02-17T11:17:14.785Z,32.31
2019-02-17T11:20:19.338Z,32.35
2019-02-17T11:23:22.807Z,32.29
2019-02-17T11:26:27.377Z,32.21
2019-02-17T11:29:30.915Z,32.23
2019-02-17T11:32:35.587Z,32.18
2019-02-17T11:35:39.170Z,32.17
2019-02-17T11:38:42.706Z,32.06
2019-02-17T11:41:48.376Z,31.92
2019-02-17T11:44:51.978Z,31.96
2019-02-17T11:47:55.425Z,32.06
2019-02-17T11:50:58.952Z,32.15
2019-02-17T11:54:02.550Z,32.17
2019-02-17T11:57:07.089Z,32.02
2019-02-17T12:00:15.771Z,31.86
2019-02-17T12:03:19.370Z,31.84
2019-02-17T12:06:22.904Z,31.87
2019-02-17T12:09:26.422Z,31.86
2019-02-17T12:12:29.917Z,31.84
2019-02-17T12:15:33.406Z,31.82
2019-02-17T12:18:36.922Z,31.85
2019-02-17T12:22:07.184Z,31.80
2019-02-17T12:25:23.122Z,31.75
2019-02-17T12:28:45.819Z,31.77
2019-02-17T12:31:50.292Z,31.71
2019-02-17T12:34:53.822Z,31.70
2019-02-17T12:37:57.323Z,31.70
2019-02-17T12:41:01.839Z,31.69
2019-02-17T12:44:05.319Z,31.65
2019-02-17T12:47:08.829Z,31.66
2019-02-17T12:50:12.781Z,31.65
2019-02-17T12:53:16.259Z,31.61
2019-02-17T12:56:20.748Z,31.60
2019-02-17T12:59:24.266Z,31.59
2019-02-17T13:02:27.778Z,31.56
2019-02-17T13:05:31.690Z,31.54
2019-02-17T13:08:35.157Z,31.54
2019-02-17T13:11:38.666Z,31.55
2019-02-17T13:14:42.193Z,31.53
2019-02-17T13:17:45.661Z,31.51
2019-02-17T13:20:49.203Z,31.50
2019-02-17T13:23:52.687Z,31.47
2019-02-17T13:26:57.239Z,31.48
2019-02-17T13:30:00.714Z,31.46
2019-02-17T13:33:06.342Z,31.45
2019-02-17T13:36:09.971Z,31.44
2019-02-17T13:39:15.555Z,31.39
2019-02-17T13:42:19.115Z,31.39
2019-02-17T13:45:22.698Z,31.38
2019-02-17T13:48:26.221Z,31.38
2019-02-17T13:51:30.739Z,31.36
2019-02-17T13:54:35.288Z,31.37
2019-02-17T13:57:38.797Z,31.33
2019-02-17T14:00:42.255Z,31.32
2019-02-17T14:03:48.790Z,31.31
2019-02-17T14:06:51.147Z,31.30
2019-02-17T14:09:55.634Z,31.29
2019-02-17T14:12:59.241Z,31.25
2019-02-17T14:16:02.969Z,31.23
2019-02-17T14:19:07.583Z,31.20
2019-02-17T14:22:11.322Z,31.44
2019-02-17T14:25:15.346Z,31.48
2019-02-17T14:28:18.914Z,31.54
2019-02-17T14:31:22.401Z,31.49
2019-02-17T14:34:25.983Z,31.51
2019-02-17T14:37:29.643Z,31.42
2019-02-17T14:40:33.114Z,31.42
2019-02-17T14:43:36.964Z,31.50
2019-02-17T14:46:40.762Z,31.59
2019-02-17T14:49:45.470Z,31.57
2019-02-17T14:52:49.261Z,31.59
2019-02-17T14:55:53.157Z,31.50
2019-02-17T14:58:57.046Z,31.46
2019-02-17T15:02:00.685Z,31.49
2019-02-17T15:05:04.386Z,31.52
2019-02-17T15:08:07.907Z,31.50
2019-02-17T15:11:11.411Z,31.61
2019-02-17T15:14:14.886Z,31.62
2019-02-17T15:17:19.520Z,31.63
2019-02-17T15:20:23.228Z,31.45
2019-02-17T15:23:26.831Z,31.48
2019-02-17T15:26:34.648Z,31.56
2019-02-17T15:29:38.123Z,31.76
2019-02-17T15:32:41.689Z,31.72
2019-02-17T15:35:45.391Z,31.66
2019-02-17T15:38:49.093Z,31.64
2019-02-17T15:41:52.860Z,31.77
2019-02-17T15:44:56.434Z,31.77
2019-02-17T15:48:00.251Z,31.75
2019-02-17T15:51:06.770Z,31.88
2019-02-17T15:54:10.555Z,31.85
2019-02-17T15:57:14.383Z,31.79
2019-02-17T16:00:17.856Z,31.79
2019-02-17T16:03:22.222Z,31.80
2019-02-17T16:06:25.896Z,31.82
2019-02-17T16:09:29.387Z,31.88
2019-02-17T16:12:32.884Z,31.78
2019-02-17T16:15:36.392Z,31.89
2019-02-17T16:18:39.901Z,31.82
2019-02-17T16:21:44.450Z,31.88
2019-02-17T16:24:47.912Z,31.82
2019-02-17T16:27:51.410Z,31.87
2019-02-17T16:30:54.880Z,31.89
2019-02-17T16:33:59.432Z,31.97
2019-02-17T16:37:02.904Z,31.92
2019-02-17T16:40:09.399Z,31.94
2019-02-17T16:43:13.023Z,32.00
2019-02-17T16:46:16.531Z,31.92
2019-02-17T16:49:20.028Z,32.02
2019-02-17T16:52:24.536Z,32.02
2019-02-17T16:55:28.038Z,32.07
2019-02-17T16:58:31.645Z,32.09
2019-02-17T17:01:35.255Z,32.07
2019-02-17T17:04:47.845Z,32.00
2019-02-17T17:07:44.103Z,31.98
2019-02-17T17:10:48.628Z,32.05
2019-02-17T17:13:53.141Z,32.03
2019-02-17T17:16:57.682Z,32.10
2019-02-17T17:20:01.192Z,32.05
2019-02-17T17:23:05.240Z,32.14
2019-02-17T17:26:10.851Z,32.13
2019-02-17T17:29:14.335Z,32.13
2019-02-17T17:32:17.847Z,32.05
2019-02-17T17:35:21.337Z,32.14
2019-02-17T17:38:24.804Z,32.12
2019-02-17T17:41:29.335Z,32.12
2019-02-17T17:44:32.782Z,32.16
2019-02-17T17:47:36.352Z,32.06
2019-02-17T17:50:39.875Z,32.01
2019-02-17T17:53:43.353Z,32.00
2019-02-17T17:56:47.272Z,31.99
2019-02-17T17:59:50.884Z,32.00
2019-02-17T18:02:54.511Z,32.06
2019-02-17T18:05:58.205Z,32.24
2019-02-17T18:09:01.682Z,32.29
2019-02-17T18:12:05.296Z,32.27
2019-02-17T18:15:10.426Z,32.31
2019-02-17T18:18:14.030Z,32.30
2019-02-17T18:21:17.898Z,32.30
2019-02-17T18:24:22.483Z,32.33
2019-02-17T18:27:25.964Z,32.32
2019-02-17T18:30:30.478Z,32.32
2019-02-17T18:33:34.026Z,32.34
2019-02-17T18:36:37.506Z,32.35
2019-02-17T18:39:43.088Z,32.32
2019-02-17T18:42:46.760Z,32.33
2019-02-17T18:45:50.263Z,32.46
2019-02-17T18:48:54.889Z,32.43
2019-02-17T18:51:58.470Z,32.42
2019-02-17T18:55:02.008Z,32.41
2019-02-17T18:58:05.544Z,32.42
2019-02-17T19:01:09.217Z,32.45
2019-02-17T19:04:12.800Z,32.45
2019-02-17T19:07:17.289Z,32.44
2019-02-17T19:10:20.782Z,32.50
2019-02-17T19:13:24.405Z,32.52
2019-02-17T19:16:27.862Z,32.49
2019-02-17T19:19:31.424Z,32.52
2019-02-17T19:22:34.920Z,32.48
2019-02-17T19:25:38.412Z,32.48
2019-02-17T19:28:41.940Z,32.50
2019-02-17T19:31:46.440Z,32.43
2019-02-17T19:34:49.951Z,32.45
2019-02-17T19:37:53.460Z,32.44
2019-02-17T19:40:56.941Z,32.39
2019-02-17T19:44:00.476Z,32.41
2019-02-17T19:47:03.931Z,32.36
2019-02-17T19:50:08.792Z,32.39
2019-02-17T19:53:12.383Z,32.42
2019-02-17T19:56:15.899Z,32.42
2019-02-17T19:59:19.403Z,32.45
2019-02-17T20:02:37.355Z,32.42
2019-02-17T20:05:51.697Z,32.43
2019-02-17T20:08:49.843Z,32.47
2019-02-17T20:11:53.474Z,32.47
2019-02-17T20:14:59.278Z,32.46
2019-02-17T20:18:02.923Z,32.46
2019-02-17T20:21:06.445Z,32.39
2019-02-17T20:24:10.152Z,32.39
2019-02-17T20:27:13.627Z,32.39
2019-02-17T20:30:17.148Z,32.41
2019-02-17T20:33:20.643Z,32.33
2019-02-17T20:36:24.176Z,32.43
2019-02-17T20:39:27.622Z,32.41
2019-02-17T20:42:31.143Z,32.37
2019-02-17T20:45:34.639Z,32.33
2019-02-17T20:48:39.154Z,32.36
2019-02-17T20:51:42.675Z,32.37
2019-02-17T20:54:47.235Z,32.36
2019-02-17T20:57:50.884Z,32.37
2019-02-17T21:00:54.423Z,32.37
2019-02-17T21:03:58.947Z,32.36
2019-02-17T21:07:02.434Z,32.35
2019-02-17T21:10:06.447Z,32.36
2019-02-17T21:13:10.025Z,32.37
2019-02-17T21:16:13.719Z,32.55
2019-02-17T21:19:18.311Z,32.43
2019-02-17T21:22:21.770Z,32.39
2019-02-17T21:25:25.260Z,32.36
2019-02-17T21:28:28.760Z,32.33
2019-02-17T21:31:32.274Z,32.30
2019-02-17T21:34:35.776Z,32.28
2019-02-17T21:37:41.321Z,32.28
2019-02-17T21:40:47.799Z,32.25
2019-02-17T21:43:51.333Z,32.30
2019-02-17T21:46:54.778Z,32.29
2019-02-17T21:50:03.492Z,32.23
2019-02-17T21:53:08.837Z,32.26
2019-02-17T21:56:11.740Z,32.26
2019-02-17T21:59:15.276Z,32.27
2019-02-17T22:02:18.751Z,32.24
2019-02-17T22:05:23.283Z,32.26
2019-02-17T22:08:26.762Z,32.28
2019-02-17T22:11:30.268Z,32.25
2019-02-17T22:14:33.817Z,32.26
2019-02-17T22:17:38.343Z,32.23
2019-02-17T22:20:41.834Z,32.20
2019-02-17T22:23:46.402Z,32.28
2019-02-17T22:26:50.365Z,32.25
2019-02-17T22:29:53.961Z,32.22
2019-02-17T22:32:57.456Z,32.23
2019-02-17T22:36:00.938Z,32.22
2019-02-17T22:39:05.860Z,32.22
2019-02-17T22:42:09.373Z,32.23
2019-02-17T22:45:14.929Z,32.22
2019-02-17T22:48:18.425Z,32.24
2019-02-17T22:51:21.951Z,32.23
2019-02-17T22:54:25.419Z,32.19
2019-02-17T22:57:28.872Z,32.26
2019-02-17T23:00:56.878Z,32.23
2019-02-17T23:04:00.495Z,32.20
2019-02-17T23:07:04.022Z,32.19
2019-02-17T23:10:08.562Z,32.19
2019-02-17T23:13:13.227Z,32.23
2019-02-17T23:16:16.838Z,32.18
2019-02-17T23:19:20.464Z,32.20
2019-02-17T23:22:25.011Z,32.15
2019-02-17T23:25:28.502Z,32.17
2019-02-17T23:28:31.992Z,32.20
2019-02-17T23:31:35.494Z,32.20
2019-02-17T23:34:38.992Z,32.20
2019-02-17T23:37:44.567Z,32.17
2019-02-17T23:40:49.063Z,32.16
2019-02-17T23:43:52.559Z,32.16
2019-02-17T23:46:56.071Z,32.16
2019-02-17T23:49:59.586Z,32.15
2019-02-17T23:53:05.109Z,32.13
2019-02-17T23:56:09.678Z,32.12
2019-02-17T23:59:13.146Z,32.13
